Time;durP1;ratioP1;P1;durP2;ratioP2;P2;SDS_P1;SDS_P2;PMS_P1;PMS_P2;Temp;Humidity;BMP_temperature;BMP_pressure;BME280_temperature;BME280_humidity;BME280_pressure;Samples;Min_cycle;Max_cycle;Signal;HPM_P1;HPM_P2
2023/10/23 00:00:43;;;;;;;10.48;8.73;;;;;;;14.60;71.42;99477.88;4933311;29;20123;-74
2023/10/23 00:03:10;;;;;;;10.30;8.20;;;;;;;14.57;71.55;99476.31;4934489;29;20648;-78
2023/10/23 00:05:37;;;;;;;9.68;8.32;;;;;;;14.56;71.69;99482.59;4934180;29;20040;-82
2023/10/23 00:08:03;;;;;;;10.38;8.60;;;;;;;14.54;71.67;99488.97;4933148;29;20066;-76
2023/10/23 00:10:30;;;;;;;8.88;8.00;;;;;;;14.50;71.83;99487.53;4934596;29;20098;-75
2023/10/23 00:12:56;;;;;;;9.82;8.27;;;;;;;14.49;71.64;99491.09;4934447;29;20052;-80
2023/10/23 00:15:23;;;;;;;9.05;7.93;;;;;;;14.49;71.82;99488.47;4932940;29;20064;-78
2023/10/23 00:17:50;;;;;;;10.50;8.40;;;;;;;14.48;71.73;99490.28;4933985;29;20055;-76
2023/10/23 00:20:16;;;;;;;8.75;7.55;;;;;;;14.46;71.53;99494.84;4934081;29;20134;-76
2023/10/23 00:22:43;;;;;;;10.23;7.80;;;;;;;14.42;71.39;99491.59;4933006;29;20052;-77
2023/10/23 00:25:09;;;;;;;10.30;7.90;;;;;;;14.40;71.34;99490.88;4934187;29;20142;-75
2023/10/23 00:27:36;;;;;;;10.23;8.40;;;;;;;14.38;71.38;99494.59;4933652;29;20111;-76
2023/10/23 00:30:03;;;;;;;10.80;7.55;;;;;;;14.35;71.42;99506.25;4932465;29;20063;-79
2023/10/23 00:32:29;;;;;;;10.10;7.88;;;;;;;14.32;71.51;99501.22;4932787;29;20535;-76
2023/10/23 00:34:56;;;;;;;9.73;8.25;;;;;;;14.29;71.34;99498.81;4932771;29;20114;-78
2023/10/23 00:37:22;;;;;;;11.05;7.80;;;;;;;14.25;71.17;99506.16;4933725;29;20158;-79
2023/10/23 00:39:49;;;;;;;8.95;7.82;;;;;;;14.22;71.32;99502.88;4932730;29;20048;-80
2023/10/23 00:42:15;;;;;;;9.23;7.88;;;;;;;14.17;71.39;99509.38;4931641;29;20051;-81
2023/10/23 00:44:42;;;;;;;9.10;8.07;;;;;;;14.14;71.48;99509.63;4933865;29;20458;-75
2023/10/23 00:47:10;;;;;;;10.80;8.13;;;;;;;14.11;71.58;99509.84;4933846;29;20053;-79
2023/10/23 00:49:37;;;;;;;9.55;7.55;;;;;;;14.10;71.77;99515.25;4933208;29;20051;-74
2023/10/23 00:52:05;;;;;;;8.10;7.30;;;;;;;14.05;71.54;99508.50;4933559;29;20493;-77
2023/10/23 00:54:32;;;;;;;11.00;8.60;;;;;;;14.05;71.95;99511.16;4933803;29;20052;-76
2023/10/23 00:56:59;;;;;;;11.88;9.25;;;;;;;14.04;72.10;99509.47;4933414;29;20081;-79
2023/10/23 00:59:26;;;;;;;10.23;8.30;;;;;;;14.04;72.28;99512.13;4933242;29;20051;-73
2023/10/23 01:01:53;;;;;;;11.07;8.45;;;;;;;14.04;72.55;99514.75;4933358;29;20055;-80
2023/10/23 01:04:20;;;;;;;11.15;8.40;;;;;;;14.05;72.49;99512.94;4933655;29;20458;-81
2023/10/23 01:06:47;;;;;;;9.18;8.25;;;;;;;14.05;72.67;99513.78;4933818;29;20394;-75
2023/10/23 01:09:13;;;;;;;9.77;7.75;;;;;;;14.07;72.84;99516.31;4933279;29;20056;-75
2023/10/23 01:11:40;;;;;;;9.85;8.85;;;;;;;14.07;72.77;99517.19;4933576;29;20052;-78
2023/10/23 01:14:07;;;;;;;10.65;9.30;;;;;;;14.10;72.85;99524.03;4932162;29;20098;-82
2023/10/23 01:16:33;;;;;;;12.07;9.77;;;;;;;14.11;72.75;99514.28;4933504;29;20480;-74
2023/10/23 01:19:00;;;;;;;11.38;9.07;;;;;;;14.11;72.83;99509.84;4939374;29;20500;-80
2023/10/23 01:21:26;;;;;;;11.38;9.68;;;;;;;14.13;72.76;99521.13;4932427;29;20079;-76
2023/10/23 01:23:53;;;;;;;11.88;9.68;;;;;;;14.14;72.72;99514.91;4933433;29;20052;-77
2023/10/23 01:26:20;;;;;;;12.23;9.63;;;;;;;14.15;72.81;99521.03;4933197;29;20059;-79
2023/10/23 01:28:47;;;;;;;12.68;10.63;;;;;;;14.15;72.87;99511.28;4932892;29;20099;-75
2023/10/23 01:31:13;;;;;;;12.57;9.75;;;;;;;14.17;72.67;99519.13;4931898;29;20135;-75
2023/10/23 01:33:40;;;;;;;12.52;10.05;;;;;;;14.16;72.75;99522.72;4933592;29;20567;-78
2023/10/23 01:36:07;;;;;;;12.35;10.70;;;;;;;14.17;72.77;99508.53;4933345;29;20495;-73
2023/10/23 01:38:34;;;;;;;11.27;10.07;;;;;;;14.17;72.71;99517.31;4933199;29;20091;-78
2023/10/23 01:41:00;;;;;;;12.35;10.40;;;;;;;14.17;72.84;99519.94;4932071;29;20047;-76
2023/10/23 01:43:27;;;;;;;14.15;9.93;;;;;;;14.16;72.54;99512.97;4933231;29;20480;-74
2023/10/23 01:45:53;;;;;;;12.95;10.52;;;;;;;14.17;72.91;99509.38;4931737;29;20047;-74
2023/10/23 01:48:21;;;;;;;14.90;11.05;;;;;;;14.18;72.85;99516.38;4931945;29;20492;-75
2023/10/23 01:50:48;;;;;;;13.73;11.45;;;;;;;14.20;72.52;99518.88;4933463;29;20047;-74
2023/10/23 01:53:15;;;;;;;15.30;11.25;;;;;;;14.20;72.59;99526.81;4934168;29;20083;-77
2023/10/23 01:55:41;;;;;;;15.07;11.90;;;;;;;14.18;72.58;99526.94;4936332;29;20134;-76
2023/10/23 01:58:08;;;;;;;14.60;11.52;;;;;;;14.17;72.50;99530.53;4935376;29;20134;-77
2023/10/23 02:00:34;;;;;;;15.00;11.82;;;;;;;14.16;72.42;99530.66;4935390;29;20063;-74
2023/10/23 02:03:01;;;;;;;16.40;12.55;;;;;;;14.13;72.14;99531.72;4936771;29;20139;-79
2023/10/23 02:05:28;;;;;;;15.73;12.25;;;;;;;14.11;72.25;99524.88;4936400;29;20059;-77
2023/10/23 02:07:54;;;;;;;15.98;12.18;;;;;;;14.08;71.71;99528.59;4935397;29;20087;-74
2023/10/23 02:10:21;;;;;;;16.70;13.02;;;;;;;14.05;71.90;99529.66;4936144;29;20115;-76
2023/10/23 02:12:47;;;;;;;16.83;12.68;;;;;;;14.02;72.00;99548.41;4935288;29;20052;-77
2023/10/23 02:15:14;;;;;;;15.63;12.25;;;;;;;13.99;72.05;99548.66;4936405;29;20495;-74
2023/10/23 02:17:40;;;;;;;15.85;13.10;;;;;;;13.97;72.08;99547.09;4950955;28;20099;-82
2023/10/23 02:20:07;;;;;;;18.42;12.93;;;;;;;13.96;72.39;99548.03;4934870;29;20545;-75
2023/10/23 02:22:34;;;;;;;15.00;12.75;;;;;;;13.94;72.32;99548.16;4934805;29;20056;-77
2023/10/23 02:25:01;;;;;;;14.48;12.68;;;;;;;13.94;72.06;99556.09;4935871;29;20052;-76
2023/10/23 02:27:28;;;;;;;18.50;13.40;;;;;;;13.93;71.94;99546.47;4936481;29;20051;-77
2023/10/23 02:29:55;;;;;;;16.55;13.48;;;;;;;13.93;72.21;99551.75;4935764;29;20048;-79
2023/10/23 02:32:21;;;;;;;15.30;12.75;;;;;;;13.92;72.24;99558.88;4935751;29;20091;-76
2023/10/23 02:34:48;;;;;;;18.23;13.60;;;;;;;13.90;72.10;99552.84;4936448;29;20055;-75
2023/10/23 02:37:15;;;;;;;15.88;13.88;;;;;;;13.90;72.10;99566.06;4934890;29;20412;-76
2023/10/23 02:39:41;;;;;;;16.90;13.25;;;;;;;13.89;72.54;99572.31;4935783;29;20511;-75
2023/10/23 02:42:08;;;;;;;17.38;14.48;;;;;;;13.90;72.54;99573.13;4935626;29;20524;-75
2023/10/23 02:44:34;;;;;;;18.02;12.52;;;;;;;13.90;72.42;99565.19;4936170;29;20138;-77
2023/10/23 02:47:01;;;;;;;18.20;14.05;;;;;;;13.89;72.41;99569.66;4935937;29;20083;-79
2023/10/23 02:49:28;;;;;;;17.15;13.02;;;;;;;13.90;72.52;99579.28;4935864;29;20044;-75
2023/10/23 02:51:54;;;;;;;15.00;12.40;;;;;;;13.90;72.17;99578.44;4935679;29;20059;-84
2023/10/23 02:54:21;;;;;;;19.77;13.00;;;;;;;13.90;72.05;99579.28;4934491;29;20056;-76
2023/10/23 02:56:48;;;;;;;16.33;13.32;;;;;;;13.89;71.77;99585.53;4935654;29;20052;-73
2023/10/23 02:59:14;;;;;;;16.92;13.65;;;;;;;13.88;71.66;99573.28;4935375;29;20497;-75
2023/10/23 03:01:41;;;;;;;18.52;13.18;;;;;;;13.85;71.44;99576.16;4935507;29;20144;-77
2023/10/23 03:04:07;;;;;;;16.15;13.38;;;;;;;13.84;71.44;99581.53;4935346;29;20051;-79
2023/10/23 03:06:34;;;;;;;14.98;11.88;;;;;;;13.80;71.40;99584.41;4934226;29;20062;-75
2023/10/23 03:09:00;;;;;;;15.10;12.60;;;;;;;13.76;71.23;99580.28;4934868;29;20413;-78
2023/10/23 03:11:27;;;;;;;15.57;12.85;;;;;;;13.73;71.18;99585.84;4935187;29;20135;-76
2023/10/23 03:13:54;;;;;;;18.08;13.23;;;;;;;13.68;71.07;99582.66;4934242;29;20059;-73
2023/10/23 03:16:21;;;;;;;15.75;12.85;;;;;;;13.65;71.37;99580.25;4935138;29;20052;-78
2023/10/23 03:18:47;;;;;;;15.35;12.20;;;;;;;13.61;71.33;99590.19;4935375;29;20412;-76
2023/10/23 03:21:14;;;;;;;16.58;11.98;;;;;;;13.59;71.83;99594.75;4934787;29;20425;-73
2023/10/23 03:23:40;;;;;;;16.80;14.20;;;;;;;13.59;71.73;99591.28;4935271;29;20060;-77
2023/10/23 03:26:07;;;;;;;15.43;12.57;;;;;;;13.56;71.97;99597.63;4935232;29;20047;-77
2023/10/23 03:28:34;;;;;;;15.43;12.43;;;;;;;13.54;71.58;99592.44;4933838;29;20090;-73
2023/10/23 03:31:01;;;;;;;18.92;13.27;;;;;;;13.53;71.72;99595.22;4934607;29;20083;-75
2023/10/23 03:33:28;;;;;;;16.02;13.23;;;;;;;13.50;71.86;99590.97;4935083;29;20119;-78
2023/10/23 03:35:55;;;;;;;18.05;13.48;;;;;;;13.50;71.83;99596.25;4933294;29;20074;-78
2023/10/23 03:38:21;;;;;;;17.95;13.65;;;;;;;13.49;71.60;99593.75;4934521;29;20154;-74
2023/10/23 03:40:56;;;;;;;18.52;13.30;;;;;;;13.45;71.75;99600.19;4933626;29;20060;-80
2023/10/23 03:43:23;;;;;;;16.75;12.45;;;;;;;13.45;71.49;99603.66;4915889;29;20493;-77
2023/10/23 03:45:49;;;;;;;16.73;12.88;;;;;;;13.43;71.42;99608.22;4925707;29;20111;-74
2023/10/23 03:48:16;;;;;;;14.80;12.25;;;;;;;13.40;71.55;99606.66;4934628;29;20052;-74
2023/10/23 03:50:42;;;;;;;17.02;12.27;;;;;;;13.39;71.66;99606.75;4934534;29;20103;-77
2023/10/23 03:53:09;;;;;;;17.42;13.10;;;;;;;13.37;71.76;99612.16;4933146;29;20141;-79
2023/10/23 03:55:37;;;;;;;18.30;14.45;;;;;;;13.37;71.65;99611.28;4934482;29;20086;-76
2023/10/23 03:58:03;;;;;;;18.25;13.32;;;;;;;13.36;71.50;99609.59;4934449;29;20073;-79
2023/10/23 04:00:30;;;;;;;18.90;13.70;;;;;;;13.33;71.37;99605.38;4934605;29;20090;-81
2023/10/23 04:02:57;;;;;;;20.05;14.13;;;;;;;13.30;71.29;99600.31;4933940;29;20044;-74
2023/10/23 04:05:23;;;;;;;20.67;15.05;;;;;;;13.28;71.21;99602.22;4934420;29;20059;-77
2023/10/23 04:07:50;;;;;;;17.58;13.57;;;;;;;13.24;71.32;99595.47;4934490;29;20217;-76
2023/10/23 04:10:17;;;;;;;20.58;14.10;;;;;;;13.21;71.28;99603.59;4933213;29;20496;-73
2023/10/23 04:12:43;;;;;;;17.45;13.20;;;;;;;13.19;71.39;99602.88;4932543;29;20741;-74
2023/10/23 04:15:10;;;;;;;16.17;12.57;;;;;;;13.16;71.43;99593.38;4934447;29;20158;-81
2023/10/23 04:17:36;;;;;;;19.70;13.95;;;;;;;13.14;71.61;99598.75;4932873;29;20390;-74
2023/10/23 04:20:04;;;;;;;18.20;14.45;;;;;;;13.14;71.91;99600.56;4934332;29;20146;-77
2023/10/23 04:22:31;;;;;;;21.27;14.77;;;;;;;13.14;71.88;99601.41;4934052;29;20138;-79
2023/10/23 04:24:57;;;;;;;19.63;15.25;;;;;;;13.14;71.70;99601.41;4933617;29;20079;-75
2023/10/23 04:27:24;;;;;;;19.40;13.77;;;;;;;13.16;71.91;99606.59;4934010;29;20508;-76
2023/10/23 04:29:50;;;;;;;21.23;15.63;;;;;;;13.17;72.18;99605.63;4933502;29;20111;-77
2023/10/23 04:32:17;;;;;;;24.45;16.35;;;;;;;13.16;71.88;99604.78;4932689;29;20060;-76
2023/10/23 04:34:43;;;;;;;24.25;16.65;;;;;;;13.16;71.90;99604.78;4934280;29;20146;-77
2023/10/23 04:37:10;;;;;;;22.75;16.60;;;;;;;13.14;71.69;99596.13;4934095;29;20146;-76
2023/10/23 04:39:37;;;;;;;24.63;17.30;;;;;;;13.14;71.75;99611.13;4933361;29;20058;-77
2023/10/23 04:42:04;;;;;;;24.95;17.30;;;;;;;13.12;71.58;99610.41;4934021;29;20111;-80
2023/10/23 04:44:31;;;;;;;24.17;17.77;;;;;;;13.10;71.58;99613.16;4932626;29;20457;-76
2023/10/23 04:46:57;;;;;;;28.05;19.20;;;;;;;13.08;71.68;99612.41;4933928;29;20047;-76
2023/10/23 04:49:24;;;;;;;24.27;18.13;;;;;;;13.07;71.77;99604.56;4933192;29;20051;-81
2023/10/23 04:51:50;;;;;;;23.20;18.52;;;;;;;13.06;71.80;99606.38;4933699;29;20491;-76
2023/10/23 04:54:17;;;;;;;23.52;17.00;;;;;;;13.05;71.57;99602.06;4932110;29;20048;-77
2023/10/23 04:56:43;;;;;;;24.90;18.15;;;;;;;13.04;71.86;99608.28;4933822;29;20057;-78
2023/10/23 04:59:10;;;;;;;28.23;18.13;;;;;;;13.03;71.97;99609.22;4933377;29;20087;-76
2023/10/23 05:01:36;;;;;;;26.40;18.02;;;;;;;13.01;72.08;99604.06;4933710;29;20497;-79
2023/10/23 05:04:04;;;;;;;24.58;18.17;;;;;;;13.02;72.07;99608.38;4933951;29;20142;-79
2023/10/23 05:06:30;;;;;;;26.55;17.40;;;;;;;13.03;72.13;99609.22;4932889;29;20051;-75
2023/10/23 05:08:57;;;;;;;22.85;17.05;;;;;;;13.03;72.10;99604.81;4932098;29;20151;-79
2023/10/23 05:11:23;;;;;;;22.55;15.95;;;;;;;13.03;71.92;99610.09;4932438;29;20059;-73
2023/10/23 05:13:50;;;;;;;24.45;17.70;;;;;;;13.03;71.87;99611.88;4932254;29;20095;-75
2023/10/23 05:16:17;;;;;;;28.17;20.20;;;;;;;13.03;71.88;99619.81;4933137;29;20048;-77
2023/10/23 05:18:44;;;;;;;27.77;19.35;;;;;;;13.02;72.00;99618.94;4933201;29;20457;-79
2023/10/23 05:21:12;;;;;;;30.92;21.83;;;;;;;13.01;71.93;99624.38;4933168;29;20063;-81
2023/10/23 05:23:40;;;;;;;27.92;20.00;;;;;;;13.01;72.21;99617.25;4931349;29;20047;-77
2023/10/23 05:26:14;;;;;;;28.05;19.17;;;;;;;13.02;72.18;99618.13;4932271;29;20051;-77
2023/10/23 05:28:41;;;;;;;27.33;19.83;;;;;;;13.02;72.08;99618.13;4934314;29;20062;-77
2023/10/23 05:31:09;;;;;;;28.42;20.17;;;;;;;13.01;71.76;99621.72;4935387;29;20052;-74
2023/10/23 05:33:36;;;;;;;32.47;20.27;;;;;;;13.02;72.25;99618.13;4936575;29;20062;-76
2023/10/23 05:36:06;;;;;;;29.40;20.63;;;;;;;13.01;72.20;99621.72;4936663;29;20126;-76
2023/10/23 05:38:33;;;;;;;30.42;21.20;;;;;;;13.03;72.21;99617.16;4936225;29;20048;-81
2023/10/23 05:41:00;;;;;;;33.35;21.30;;;;;;;13.03;72.22;99625.94;4936657;29;20489;-78
2023/10/23 05:43:27;;;;;;;31.25;21.05;;;;;;;13.04;71.92;99621.47;4936898;29;20134;-73
2023/10/23 05:45:57;;;;;;;26.35;19.15;;;;;;;13.02;71.95;99628.69;4936875;29;20051;-77
2023/10/23 05:48:24;;;;;;;28.83;19.70;;;;;;;13.03;71.81;99631.22;4935464;29;20048;-77
2023/10/23 05:51:01;;;;;;;25.95;19.10;;;;;;;13.00;71.64;99634.06;4935064;29;20501;-76
2023/10/23 05:53:28;;;;;;;30.85;19.83;;;;;;;13.02;71.89;99632.16;4928871;29;20615;-76
2023/10/23 05:56:01;;;;;;;28.75;19.08;;;;;;;12.99;71.73;99628.88;4935968;29;20488;-77
2023/10/23 05:58:27;;;;;;;25.30;19.38;;;;;;;13.02;71.94;99633.97;4936132;29;20054;-74
2023/10/23 06:00:54;;;;;;;25.20;18.67;;;;;;;13.01;71.92;99632.28;4951259;29;20052;-79
2023/10/23 06:03:21;;;;;;;21.92;16.92;;;;;;;13.01;72.07;99635.75;4935969;29;20055;-78
2023/10/23 06:05:47;;;;;;;26.08;18.75;;;;;;;13.01;72.21;99638.41;4935056;29;20063;-73
2023/10/23 06:08:14;;;;;;;23.27;17.92;;;;;;;13.02;72.13;99639.25;4936499;29;20063;-73
2023/10/23 06:10:43;;;;;;;26.77;18.73;;;;;;;13.02;72.26;99640.09;4936679;29;20059;-77
2023/10/23 06:13:11;;;;;;;27.92;18.85;;;;;;;13.03;72.32;99641.81;4935717;29;20083;-77
2023/10/23 06:15:38;;;;;;;24.73;17.77;;;;;;;13.05;72.41;99646.13;4935872;29;20059;-75
2023/10/23 06:18:06;;;;;;;27.98;18.25;;;;;;;13.07;72.59;99641.56;4934258;29;20060;-77
2023/10/23 06:20:33;;;;;;;26.02;18.13;;;;;;;13.09;72.50;99650.25;4935632;29;20054;-80
2023/10/23 06:23:00;;;;;;;25.92;17.85;;;;;;;13.12;72.46;99652.69;4935482;29;20079;-76
2023/10/23 06:25:27;;;;;;;25.63;18.10;;;;;;;13.12;72.58;99648.22;4934495;29;20108;-80
2023/10/23 06:27:53;;;;;;;28.77;18.42;;;;;;;13.14;72.49;99648.97;4935183;29;20246;-75
2023/10/23 06:30:21;;;;;;;24.45;18.67;;;;;;;13.16;72.51;99649.69;4935746;29;20052;-77
2023/10/23 06:32:47;;;;;;;23.73;17.33;;;;;;;13.21;72.42;99653.81;4935903;29;20083;-78
2023/10/23 06:35:15;;;;;;;22.50;17.17;;;;;;;13.22;72.33;99648.44;4935768;29;20055;-77
2023/10/23 06:37:42;;;;;;;25.10;17.80;;;;;;;13.25;72.56;99656.16;4942254;29;20059;-77
2023/10/23 06:40:09;;;;;;;24.25;17.63;;;;;;;13.27;72.57;99654.25;4915922;29;20051;-77
2023/10/23 06:42:35;;;;;;;24.63;17.80;;;;;;;13.31;72.55;99660.19;4916817;29;20096;-81
2023/10/23 06:45:03;;;;;;;26.70;18.73;;;;;;;13.34;72.62;99653.81;4916668;29;20055;-76
2023/10/23 06:47:30;;;;;;;25.92;17.50;;;;;;;13.37;72.35;99656.22;4916786;29;20139;-75
2023/10/23 06:49:56;;;;;;;26.30;18.42;;;;;;;13.40;72.61;99659.53;4916066;29;20059;-76
2023/10/23 06:52:23;;;;;;;24.58;18.60;;;;;;;13.43;72.34;99656.63;4920898;29;20106;-77
2023/10/23 06:54:49;;;;;;;28.90;18.60;;;;;;;13.47;72.37;99657.28;4934131;29;20074;-75
2023/10/23 06:57:16;;;;;;;25.15;18.05;;;;;;;13.49;72.23;99665.16;4933788;29;20091;-77
2023/10/23 06:59:42;;;;;;;23.40;17.48;;;;;;;13.51;72.29;99663.22;4933773;29;20050;-76
2023/10/23 07:02:09;;;;;;;24.25;18.40;;;;;;;13.53;72.21;99663.97;4933655;29;20648;-76
2023/10/23 07:04:36;;;;;;;24.45;17.38;;;;;;;13.54;72.29;99669.13;4935012;29;20497;-76
2023/10/23 07:07:02;;;;;;;22.35;16.85;;;;;;;13.56;72.25;99669.03;4935231;29;20062;-76
2023/10/23 07:09:48;;;;;;;24.85;16.48;;;;;;;13.59;72.25;99671.47;4935341;29;20134;-80
2023/10/23 07:12:14;;;;;;;25.80;19.25;;;;;;;13.62;72.06;99673.03;4935343;29;20083;-82
2023/10/23 07:14:41;;;;;;;26.30;17.88;;;;;;;13.62;71.97;99676.53;4935050;29;20078;-75
2023/10/23 07:17:07;;;;;;;23.73;17.38;;;;;;;13.63;71.76;99675.59;4935086;29;20048;-74
2023/10/23 07:19:34;;;;;;;24.45;17.60;;;;;;;13.63;71.98;99675.59;4934997;29;20127;-80
2023/10/23 07:22:01;;;;;;;26.00;17.40;;;;;;;13.65;71.98;99675.47;4934677;29;20096;-80
2023/10/23 07:24:27;;;;;;;25.45;18.73;;;;;;;13.65;71.70;99673.66;4935053;29;20055;-78
2023/10/23 07:26:54;;;;;;;24.98;17.75;;;;;;;13.64;71.77;99674.63;4934758;29;20052;-76
2023/10/23 07:29:20;;;;;;;24.65;17.85;;;;;;;13.65;71.86;99681.59;4933740;29;20043;-83
2023/10/23 07:31:47;;;;;;;21.13;16.45;;;;;;;13.65;71.80;99680.78;4935066;29;20055;-75
2023/10/23 07:34:13;;;;;;;23.38;17.88;;;;;;;13.66;72.00;99685.09;4934538;29;20055;-74
2023/10/23 07:36:40;;;;;;;25.13;17.17;;;;;;;13.67;72.46;99678.84;4934766;29;20484;-78
2023/10/23 07:39:08;;;;;;;26.55;18.52;;;;;;;13.68;72.19;99678.75;4934681;29;20059;-76
2023/10/23 07:41:34;;;;;;;24.85;18.48;;;;;;;13.70;72.16;99676.00;4934823;29;20110;-80
2023/10/23 07:44:01;;;;;;;21.42;16.48;;;;;;;13.74;72.60;99684.53;4934365;29;20489;-77
2023/10/23 07:46:27;;;;;;;27.42;18.35;;;;;;;13.78;72.69;99684.22;4934285;29;20501;-77
2023/10/23 07:48:54;;;;;;;27.00;17.60;;;;;;;13.82;72.82;99676.91;4934664;29;20056;-74
2023/10/23 07:51:20;;;;;;;27.98;18.65;;;;;;;13.88;73.05;99673.81;4934311;29;20051;-75
2023/10/23 07:53:47;;;;;;;27.52;20.15;;;;;;;13.96;72.95;99669.75;4934473;29;20596;-76
2023/10/23 07:56:14;;;;;;;25.83;19.58;;;;;;;14.01;72.74;99670.25;4934335;29;20107;-75
2023/10/23 07:58:41;;;;;;;24.88;18.10;;;;;;;14.06;72.81;99674.28;4934161;29;20091;-77
2023/10/23 08:01:09;;;;;;;24.67;18.27;;;;;;;14.12;72.58;99678.28;4934027;29;20108;-77
2023/10/23 08:03:36;;;;;;;26.73;19.80;;;;;;;14.16;72.38;99679.75;4933182;29;20051;-77
2023/10/23 08:06:04;;;;;;;27.58;19.08;;;;;;;14.19;72.13;99679.53;4933558;29;20051;-77
2023/10/23 08:08:36;;;;;;;28.30;19.90;;;;;;;14.22;71.87;99685.53;4932927;29;20056;-76
2023/10/23 08:11:04;;;;;;;29.67;20.73;;;;;;;14.24;71.65;99678.34;4934206;29;20051;-77
2023/10/23 08:13:31;;;;;;;32.55;20.75;;;;;;;14.24;71.43;99679.16;4934284;29;20060;-74
2023/10/23 08:15:58;;;;;;;30.38;19.70;;;;;;;14.24;71.68;99678.34;4933969;29;20642;-75
2023/10/23 08:18:27;;;;;;;26.98;19.50;;;;;;;14.25;71.62;99680.03;4932732;29;20087;-76
2023/10/23 08:21:10;;;;;;;27.17;18.58;;;;;;;14.22;71.09;99669.66;4933883;29;20055;-75
2023/10/23 08:23:37;;;;;;;25.40;17.42;;;;;;;14.22;71.35;99681.09;4933558;29;20118;-75
2023/10/23 08:26:04;;;;;;;30.13;18.85;;;;;;;14.20;71.41;99683.84;4933848;29;20055;-80
2023/10/23 08:28:30;;;;;;;29.33;19.50;;;;;;;14.19;71.39;99683.97;4933880;29;20056;-73
2023/10/23 08:31:17;;;;;;;23.45;17.80;;;;;;;14.17;71.56;99681.41;4946440;28;20051;-75
2023/10/23 08:34:00;;;;;;;26.52;18.70;;;;;;;14.17;71.48;99686.72;4933471;29;20107;-77
2023/10/23 08:36:27;;;;;;;25.63;19.02;;;;;;;14.15;71.58;99683.34;4933869;29;20047;-76
2023/10/23 08:38:54;;;;;;;30.33;19.25;;;;;;;14.13;71.49;99682.59;4933761;29;20066;-76
2023/10/23 08:41:20;;;;;;;30.88;20.23;;;;;;;14.12;71.55;99680.91;4933453;29;20490;-76
2023/10/23 08:43:47;;;;;;;31.55;20.63;;;;;;;14.13;71.81;99676.47;4933763;29;20051;-77
2023/10/23 08:46:14;;;;;;;27.10;19.25;;;;;;;14.13;72.19;99674.66;4933482;29;20111;-75
2023/10/23 08:48:41;;;;;;;31.10;20.13;;;;;;;14.14;72.27;99673.72;4933502;29;20052;-76
2023/10/23 08:51:08;;;;;;;30.67;19.48;;;;;;;14.16;72.21;99666.50;4933516;29;20497;-77
2023/10/23 08:53:46;;;;;;;26.75;19.83;;;;;;;14.17;72.04;99676.13;4933500;29;20592;-75
2023/10/23 08:56:31;;;;;;;24.73;17.55;;;;;;;14.23;72.02;99669.53;4933587;29;20088;-75
2023/10/23 08:58:59;;;;;;;27.85;17.90;;;;;;;14.25;71.96;99669.44;4933399;29;20047;-75
2023/10/23 09:01:27;;;;;;;24.98;17.25;;;;;;;14.27;71.92;99665.72;4933571;29;20058;-77
2023/10/23 09:03:56;;;;;;;24.58;16.05;;;;;;;14.30;71.91;99656.69;4934157;29;20503;-77
2023/10/23 09:06:30;;;;;;;24.70;17.17;;;;;;;14.35;72.07;99661.66;4937635;29;20146;-77
2023/10/23 09:08:57;;;;;;;24.75;17.17;;;;;;;14.38;72.13;99658.75;4937492;29;20066;-80
2023/10/23 09:11:45;;;;;;;27.55;16.73;;;;;;;14.38;72.09;99664.91;4937512;29;20098;-76
2023/10/23 09:14:27;;;;;;;22.50;15.23;;;;;;;14.45;71.91;99660.84;4937728;29;20146;-75
2023/10/23 09:16:55;;;;;;;30.08;17.05;;;;;;;14.55;72.20;99657.50;4937429;29;20048;-74
2023/10/23 09:19:29;;;;;;;28.60;16.08;;;;;;;14.60;72.15;99652.69;4937407;29;20079;-80
2023/10/23 09:21:56;;;;;;;34.25;17.05;;;;;;;14.66;71.95;99654.03;4936166;29;20044;-76
2023/10/23 09:24:23;;;;;;;21.23;14.63;;;;;;;14.72;71.91;99648.28;4937251;29;20436;-75
2023/10/23 09:26:51;;;;;;;20.55;13.27;;;;;;;14.77;71.85;99650.63;4936201;29;20051;-74
2023/10/23 09:29:22;;;;;;;22.50;14.00;;;;;;;14.81;71.11;99644.94;4937090;29;20048;-80
2023/10/23 09:31:50;;;;;;;20.80;13.95;;;;;;;14.90;71.60;99642.56;4937280;29;20056;-75
2023/10/23 09:34:21;;;;;;;17.30;11.73;;;;;;;14.96;71.39;99640.25;4937177;29;20048;-76
2023/10/23 09:36:52;;;;;;;16.92;13.38;;;;;;;15.03;71.31;99637.16;4937549;29;20059;-81
2023/10/23 09:39:22;;;;;;;20.77;13.48;;;;;;;15.08;71.22;99635.84;4935900;29;20067;-78
2023/10/23 09:41:50;;;;;;;15.85;13.05;;;;;;;15.15;71.30;99636.19;4937134;29;20407;-76
2023/10/23 09:44:17;;;;;;;19.25;13.65;;;;;;;15.22;71.33;99636.56;4935784;29;20047;-76
2023/10/23 09:46:45;;;;;;;20.60;13.75;;;;;;;15.29;71.40;99636.91;4936926;29;20090;-81
2023/10/23 09:49:12;;;;;;;17.23;12.50;;;;;;;15.37;71.16;99643.28;4936644;29;20575;-75
2023/10/23 09:51:39;;;;;;;20.08;13.68;;;;;;;15.44;70.83;99641.00;4937001;29;20052;-79
2023/10/23 09:54:17;;;;;;;16.45;12.10;;;;;;;15.49;69.37;99641.50;4936943;29;20091;-77
2023/10/23 09:56:48;;;;;;;18.58;13.15;;;;;;;15.58;69.54;99639.91;4936566;29;20051;-83
2023/10/23 09:59:18;;;;;;;17.02;12.40;;;;;;;15.64;70.13;99642.03;4936378;29;20412;-80
2023/10/23 10:01:49;;;;;;;17.80;12.07;;;;;;;15.72;70.01;99643.25;4935578;29;20047;-80
2023/10/23 10:04:31;;;;;;;17.48;12.75;;;;;;;15.79;69.83;99635.63;4936694;29;20059;-74
2023/10/23 10:07:13;;;;;;;17.83;13.07;;;;;;;15.89;69.41;99641.91;4936633;29;20560;-76
2023/10/23 10:09:41;;;;;;;20.88;13.52;;;;;;;16.00;70.16;99641.06;4935158;29;20062;-79
2023/10/23 10:12:08;;;;;;;19.38;13.00;;;;;;;16.07;70.25;99633.44;4936608;29;20398;-75
2023/10/23 10:14:35;;;;;;;17.63;13.50;;;;;;;16.16;70.29;99635.31;4935698;29;20134;-82
2023/10/23 10:17:04;;;;;;;20.58;13.43;;;;;;;16.25;70.22;99637.22;4935841;29;20062;-76
2023/10/23 10:19:31;;;;;;;21.77;14.30;;;;;;;16.36;69.93;99631.00;4934506;29;20059;-79
2023/10/23 10:22:13;;;;;;;19.25;14.15;;;;;;;16.46;68.88;99624.91;4935786;29;20095;-75
2023/10/23 10:24:41;;;;;;;17.83;12.73;;;;;;;16.63;70.18;99626.16;4936105;29;20055;-77
2023/10/23 10:27:08;;;;;;;22.88;13.55;;;;;;;16.74;69.94;99620.75;4936223;29;20091;-73
2023/10/23 10:29:35;;;;;;;17.30;13.23;;;;;;;16.88;69.95;99616.94;4936015;29;20064;-75
2023/10/23 10:32:05;;;;;;;19.27;12.80;;;;;;;17.02;69.82;99620.19;4935633;29;20056;-77
2023/10/23 10:35:07;;;;;;;18.38;12.18;;;;;;;17.13;68.85;99621.97;4935748;29;20052;-77
2023/10/23 10:37:36;;;;;;;19.45;12.27;;;;;;;17.31;68.05;99620.34;4931313;29;20509;-78
2023/10/23 10:40:04;;;;;;;17.70;11.73;;;;;;;17.44;69.20;99624.59;4935805;29;20503;-76
2023/10/23 10:42:35;;;;;;;16.65;11.15;;;;;;;17.55;67.32;99627.16;4935615;29;20445;-77
2023/10/23 10:45:11;;;;;;;18.17;11.93;;;;;;;17.69;68.56;99622.41;4935875;29;20052;-78
2023/10/23 10:47:43;;;;;;;19.77;11.73;;;;;;;17.81;67.67;99629.31;4935604;29;20139;-76
2023/10/23 10:50:10;;;;;;;17.38;11.30;;;;;;;17.97;68.65;99625.25;4935658;29;20063;-77
2023/10/23 10:52:43;;;;;;;17.10;12.02;;;;;;;18.12;68.48;99624.88;4935381;29;20051;-75
2023/10/23 10:55:10;;;;;;;;;;;;;;;18.29;68.17;99613.53;4934756;29;20138;-74
2023/10/23 10:57:42;;;;;;;11.32;9.52;;;;;;;18.57;67.25;99612.75;4935605;29;19949;-75
2023/10/23 11:00:11;;;;;;;13.65;10.07;;;;;;;18.80;68.29;99602.59;4934285;29;20497;-75
2023/10/23 11:02:37;;;;;;;14.63;10.10;;;;;;;19.01;67.35;99602.41;4935437;29;20171;-78
2023/10/23 11:05:11;;;;;;;15.00;10.70;;;;;;;19.18;64.87;99593.81;4935359;29;20827;-75
2023/10/23 11:07:38;;;;;;;14.95;10.98;;;;;;;19.31;65.19;99588.94;4933910;29;20424;-78
2023/10/23 11:10:06;;;;;;;16.10;11.15;;;;;;;19.40;64.65;99584.56;4934876;29;20059;-84
2023/10/23 11:12:33;;;;;;;14.35;10.13;;;;;;;19.45;63.84;99587.63;4934903;29;20489;-78
2023/10/23 11:15:00;;;;;;;12.60;9.95;;;;;;;19.51;63.71;99587.00;4935130;29;20058;-74
2023/10/23 11:17:26;;;;;;;12.65;10.27;;;;;;;19.57;63.91;99585.56;4935450;29;20471;-76
2023/10/23 11:19:53;;;;;;;14.18;11.65;;;;;;;19.63;63.74;99582.28;4935117;29;20062;-77
2023/10/23 11:22:21;;;;;;;14.88;11.13;;;;;;;19.70;63.29;99576.34;4934798;29;20492;-81